Time;durP1;ratioP1;P1;durP2;ratioP2;P2;SDS_P1;SDS_P2;PMS_P1;PMS_P2;Temp;Humidity;BMP_temperature;BMP_pressure;BME280_temperature;BME280_humidity;BME280_pressure;Samples;Min_cycle;Max_cycle;Signal;HPM_P1;HPM_P2
2022/10/09 00:01:06;;;;;;;5.90;2.75;;;10.40;99.90;;;;;;2603372;54;20896;31
2022/10/09 00:03:42;;;;;;;6.07;2.60;;;10.30;99.90;;;;;;2603355;54;20027;31
2022/10/09 00:06:17;;;;;;;6.70;3.10;;;10.20;99.90;;;;;;2603550;54;20932;31
2022/10/09 00:08:51;;;;;;;8.33;3.10;;;10.20;99.90;;;;;;2603535;54;20049;31
2022/10/09 00:11:27;;;;;;;10.40;3.55;;;10.20;99.90;;;;;;2613078;46;21193;31
2022/10/09 00:14:01;;;;;;;7.50;2.95;;;10.20;99.90;;;;;;2603420;54;20026;31
2022/10/09 00:16:39;;;;;;;11.30;2.80;;;10.20;99.90;;;;;;2603172;54;20037;31
2022/10/09 00:19:13;;;;;;;9.82;2.90;;;10.20;99.90;;;;;;2613047;46;20030;31
2022/10/09 00:21:48;;;;;;;6.82;2.63;;;10.40;99.90;;;;;;2603260;54;20116;31
2022/10/09 00:24:23;;;;;;;11.98;3.28;;;10.10;99.90;;;;;;2618361;46;20818;31
2022/10/09 00:26:58;;;;;;;7.60;3.35;;;10.00;99.90;;;;;;2603516;54;20788;31
2022/10/09 00:29:33;;;;;;;8.50;2.70;;;10.00;99.90;;;;;;2603344;54;20719;31
2022/10/09 00:32:11;;;;;;;8.07;3.13;;;10.00;99.90;;;;;;2621968;46;20827;31
2022/10/09 00:34:46;;;;;;;9.93;3.67;;;9.90;99.90;;;;;;2603248;54;20019;31
2022/10/09 00:37:21;;;;;;;6.05;3.10;;;9.90;99.90;;;;;;2603299;54;20048;31
2022/10/09 00:39:56;;;;;;;4.97;2.80;;;10.20;99.90;;;;;;2603183;54;20928;31
2022/10/09 00:42:31;;;;;;;9.20;2.75;;;9.80;99.90;;;;;;2615943;46;20026;31
2022/10/09 00:45:09;;;;;;;7.60;3.20;;;9.80;99.90;;;;;;2603215;54;20821;31
2022/10/09 00:47:47;;;;;;;5.70;2.70;;;9.80;99.90;;;;;;2603294;54;20858;31
2022/10/09 00:50:23;;;;;;;7.82;3.08;;;10.20;99.90;;;;;;2603127;54;20818;31
2022/10/09 00:53:02;;;;;;;7.68;3.10;;;9.70;99.90;;;;;;2603327;54;20019;31
2022/10/09 00:55:36;;;;;;;9.05;2.90;;;9.70;99.90;;;;;;2603064;54;20026;31
2022/10/09 00:58:11;;;;;;;7.07;2.63;;;9.80;99.90;;;;;;2621567;46;20045;31
2022/10/09 01:00:47;;;;;;;8.17;2.60;;;10.00;99.90;;;;;;2621768;46;20022;31
2022/10/09 01:03:24;;;;;;;5.23;2.10;;;9.70;99.90;;;;;;2603035;54;20251;31
2022/10/09 01:06:02;;;;;;;14.80;2.90;;;9.60;99.90;;;;;;2603178;54;20026;31
2022/10/09 01:08:39;;;;;;;3.72;2.65;;;9.60;99.90;;;;;;2603276;54;20897;31
2022/10/09 01:11:16;;;;;;;5.70;2.50;;;9.60;99.90;;;;;;2602988;54;21029;31
2022/10/09 01:13:54;;;;;;;5.20;2.10;;;9.80;99.90;;;;;;2602942;54;20101;31
2022/10/09 01:16:29;;;;;;;3.60;2.35;;;9.70;99.90;;;;;;2602891;54;20960;31
2022/10/09 01:19:08;;;;;;;4.20;2.15;;;9.90;99.90;;;;;;2603195;54;20889;31
2022/10/09 01:21:43;;;;;;;5.55;2.90;;;9.50;99.90;;;;;;2603143;54;20029;31
2022/10/09 01:24:23;;;;;;;9.15;2.80;;;9.50;99.90;;;;;;2603138;54;20077;31
2022/10/09 01:27:03;;;;;;;5.97;2.55;;;9.50;99.90;;;;;;2602901;54;20096;31
2022/10/09 01:29:39;;;;;;;5.78;2.60;;;9.50;99.90;;;;;;2602965;54;20081;31
2022/10/09 01:32:14;;;;;;;8.60;2.72;;;9.40;99.90;;;;;;2621453;46;20085;31
2022/10/09 01:34:49;;;;;;;9.80;4.15;;;9.40;99.90;;;;;;2603169;54;20026;31
2022/10/09 01:37:24;;;;;;;9.87;4.63;;;9.30;99.90;;;;;;2602856;54;20081;31
2022/10/09 01:39:58;;;;;;;7.38;4.05;;;9.30;99.90;;;;;;2622006;47;20901;31
2022/10/09 01:42:35;;;;;;;6.60;3.03;;;9.40;99.90;;;;;;2608077;47;20037;31
2022/10/09 01:45:10;;;;;;;5.67;3.30;;;9.20;99.90;;;;;;2602839;54;20900;31
2022/10/09 01:47:45;;;;;;;8.02;2.80;;;9.20;99.90;;;;;;2603072;54;20028;31
2022/10/09 01:50:23;;;;;;;9.85;3.75;;;9.10;99.90;;;;;;2603059;54;20031;31
2022/10/09 01:52:59;;;;;;;7.40;2.93;;;9.10;99.90;;;;;;2602919;54;20027;31
2022/10/09 01:55:38;;;;;;;6.20;2.50;;;9.10;99.90;;;;;;2602983;54;19989;31
2022/10/09 01:58:18;;;;;;;7.37;2.87;;;9.00;99.90;;;;;;2602839;54;20153;31
2022/10/09 02:00:51;;;;;;;11.73;3.25;;;9.10;99.90;;;;;;2603007;54;20157;31
2022/10/09 02:03:26;;;;;;;5.77;3.07;;;9.00;99.90;;;;;;2602869;54;20905;31
2022/10/09 02:06:00;;;;;;;8.13;3.15;;;9.30;99.90;;;;;;2603018;54;20947;31
2022/10/09 02:08:34;;;;;;;7.82;4.05;;;8.90;99.90;;;;;;2603740;54;20022;31
2022/10/09 02:11:10;;;;;;;6.90;3.00;;;8.90;99.90;;;;;;2603885;54;20778;31
2022/10/09 02:13:46;;;;;;;7.50;3.50;;;8.90;99.90;;;;;;2603858;54;20973;31
2022/10/09 02:16:22;;;;;;;7.40;3.83;;;9.20;99.90;;;;;;2603813;54;20050;31
2022/10/09 02:18:58;;;;;;;8.33;3.00;;;9.30;99.90;;;;;;2603686;54;20027;31
2022/10/09 02:21:36;;;;;;;6.38;3.92;;;8.80;99.90;;;;;;2603790;54;20025;31
2022/10/09 02:24:12;;;;;;;8.35;3.90;;;8.80;99.90;;;;;;2603655;54;20037;31
2022/10/09 02:26:46;;;;;;;8.45;4.13;;;8.80;99.90;;;;;;2603697;54;20046;31
2022/10/09 02:29:23;;;;;;;8.55;3.60;;;8.80;99.90;;;;;;2621972;46;20809;31
2022/10/09 02:31:57;;;;;;;10.73;3.17;;;8.70;99.90;;;;;;2622369;46;20077;31
2022/10/09 02:34:32;;;;;;;10.50;3.40;;;8.70;99.90;;;;;;2603666;54;20923;31
2022/10/09 02:37:06;;;;;;;7.43;3.20;;;8.70;99.90;;;;;;2603567;54;20022;31
2022/10/09 02:39:42;;;;;;;6.28;3.42;;;8.60;99.90;;;;;;2603628;54;20030;31
2022/10/09 02:42:17;;;;;;;8.68;3.25;;;8.70;99.90;;;;;;2603625;54;19960;31
2022/10/09 02:44:54;;;;;;;6.50;3.23;;;8.60;99.90;;;;;;2603656;54;20038;31
2022/10/09 02:47:28;;;;;;;7.57;2.80;;;8.60;99.90;;;;;;2702102;39;21355;31
2022/10/09 02:50:03;;;;;;;6.20;2.40;;;8.60;99.90;;;;;;2603796;54;20033;31
2022/10/09 02:52:37;;;;;;;9.18;3.05;;;8.60;99.90;;;;;;2603761;54;20052;31
2022/10/09 02:55:13;;;;;;;4.85;2.72;;;8.50;99.90;;;;;;2621889;46;20037;31
2022/10/09 02:57:50;;;;;;;5.22;2.25;;;8.50;99.90;;;;;;2603359;54;20928;31
2022/10/09 03:00:27;;;;;;;7.32;2.72;;;8.80;99.90;;;;;;2603597;54;20034;31
2022/10/09 03:03:01;;;;;;;6.05;3.05;;;8.50;99.90;;;;;;2603579;54;20046;31
2022/10/09 03:05:36;;;;;;;5.68;2.90;;;8.50;99.90;;;;;;2603546;54;20157;31
2022/10/09 03:08:10;;;;;;;7.90;3.30;;;8.50;99.90;;;;;;2603697;54;20896;31
2022/10/09 03:10:44;;;;;;;14.05;3.90;;;8.40;99.90;;;;;;2608787;46;20029;31
2022/10/09 03:13:18;;;;;;;5.70;2.35;;;8.40;99.90;;;;;;2603353;54;20082;31
2022/10/09 03:15:55;;;;;;;5.70;2.58;;;8.40;99.90;;;;;;2603592;54;20026;31
2022/10/09 03:18:29;;;;;;;10.00;3.00;;;8.30;99.90;;;;;;2603395;54;20950;31
2022/10/09 03:21:03;;;;;;;8.90;2.80;;;8.30;99.90;;;;;;2603674;54;21016;31
2022/10/09 03:23:37;;;;;;;5.28;3.50;;;8.30;99.90;;;;;;2603390;54;20033;31
2022/10/09 03:26:14;;;;;;;9.90;3.08;;;8.20;99.90;;;;;;2603645;54;20864;31
2022/10/09 03:28:48;;;;;;;13.13;4.28;;;8.20;99.90;;;;;;2603428;54;20093;31
2022/10/09 03:31:27;;;;;;;5.90;2.92;;;8.20;99.90;;;;;;2622030;46;20026;31
2022/10/09 03:34:21;;;;;;;6.55;2.60;;;8.10;99.90;;;;;;2603415;54;20712;31
2022/10/09 03:36:55;;;;;;;14.65;2.33;;;8.10;99.90;;;;;;2603434;54;20968;31
2022/10/09 03:39:30;;;;;;;3.55;1.65;;;8.10;99.90;;;;;;2603365;54;20105;31
2022/10/09 03:42:04;;;;;;;3.78;2.22;;;8.10;99.90;;;;;;2622186;46;20142;31
2022/10/09 03:44:38;;;;;;;5.90;2.50;;;8.00;99.90;;;;;;2603450;54;20057;31
2022/10/09 03:47:16;;;;;;;6.22;2.30;;;8.00;99.90;;;;;;2603375;54;20060;31
2022/10/09 03:49:50;;;;;;;10.40;3.25;;;8.00;99.90;;;;;;2603576;54;20029;31
2022/10/09 03:52:25;;;;;;;7.25;2.40;;;8.00;99.90;;;;;;2603588;54;20755;31
2022/10/09 03:54:59;;;;;;;5.70;2.05;;;7.90;99.90;;;;;;2603550;54;20056;31
2022/10/09 03:57:33;;;;;;;10.60;2.25;;;7.90;99.90;;;;;;2603675;54;20026;31
2022/10/09 04:00:08;;;;;;;4.25;1.63;;;8.10;99.90;;;;;;2603385;54;20022;31
2022/10/09 04:02:46;;;;;;;5.70;2.42;;;7.80;99.90;;;;;;2603548;54;20064;31
2022/10/09 04:05:21;;;;;;;6.95;2.10;;;7.80;99.90;;;;;;2603287;54;20038;31
2022/10/09 04:07:56;;;;;;;3.47;1.70;;;7.80;99.90;;;;;;2603384;54;20042;31
2022/10/09 04:10:31;;;;;;;5.05;2.25;;;7.80;99.90;;;;;;2622069;46;20061;31
2022/10/09 04:13:06;;;;;;;5.15;2.40;;;7.80;99.90;;;;;;2603453;54;20044;31
2022/10/09 04:15:41;;;;;;;4.80;1.75;;;7.70;99.90;;;;;;2603359;54;20038;31
2022/10/09 04:18:17;;;;;;;3.55;1.80;;;7.70;99.90;;;;;;2603141;54;20038;31
2022/10/09 04:20:52;;;;;;;5.10;1.88;;;7.60;99.90;;;;;;2603308;54;20893;31
2022/10/09 04:23:28;;;;;;;5.38;2.20;;;7.80;99.90;;;;;;2603499;54;20027;31
2022/10/09 04:26:02;;;;;;;5.97;1.90;;;7.60;99.90;;;;;;2603495;54;20033;31
2022/10/09 04:28:37;;;;;;;4.28;2.13;;;7.60;99.90;;;;;;2603341;54;20030;31
2022/10/09 04:31:12;;;;;;;4.30;2.45;;;7.50;99.90;;;;;;2602945;54;20042;31
2022/10/09 04:33:50;;;;;;;4.47;2.40;;;7.50;99.90;;;;;;2603410;54;20049;31
2022/10/09 04:36:24;;;;;;;3.88;1.80;;;7.50;99.90;;;;;;2603459;54;20124;31
2022/10/09 04:38:58;;;;;;;6.80;2.08;;;7.60;99.90;;;;;;2621851;46;20049;31
2022/10/09 04:41:32;;;;;;;6.95;2.20;;;7.40;99.90;;;;;;2603256;54;20052;31
2022/10/09 04:44:11;;;;;;;3.92;1.83;;;7.30;99.90;;;;;;2603176;54;20875;31
2022/10/09 04:46:45;;;;;;;5.80;2.20;;;7.30;99.90;;;;;;2603066;54;20033;31
2022/10/09 04:49:23;;;;;;;5.90;1.73;;;7.30;99.90;;;;;;2603240;54;24085;31
2022/10/09 04:51:57;;;;;;;7.82;2.60;;;7.30;99.90;;;;;;2603105;54;20029;31
2022/10/09 04:54:32;;;;;;;5.05;2.25;;;7.20;99.90;;;;;;2603157;54;20896;31
2022/10/09 04:57:06;;;;;;;6.10;1.92;;;7.20;99.90;;;;;;2603101;54;20027;31
2022/10/09 04:59:41;;;;;;;6.43;2.30;;;7.20;99.90;;;;;;2603362;54;20030;31
2022/10/09 05:02:15;;;;;;;4.35;1.60;;;7.20;99.90;;;;;;2603515;54;20811;31
2022/10/09 05:04:53;;;;;;;3.57;1.30;;;7.20;99.90;;;;;;2621655;46;20085;31
2022/10/09 05:07:27;;;;;;;3.92;1.95;;;7.10;99.90;;;;;;2603077;54;20825;31
2022/10/09 05:10:06;;;;;;;6.70;2.40;;;7.10;99.90;;;;;;2602993;54;20989;31
2022/10/09 05:12:42;;;;;;;5.03;1.88;;;7.10;99.90;;;;;;2603020;54;20022;31
2022/10/09 05:15:17;;;;;;;5.28;1.92;;;7.10;99.90;;;;;;2603057;54;20030;31
2022/10/09 05:18:00;;;;;;;5.07;2.60;;;7.10;99.90;;;;;;2603284;54;20853;31
2022/10/09 05:20:37;;;;;;;4.82;1.50;;;7.10;99.90;;;;;;2621452;46;20936;31
2022/10/09 05:23:15;;;;;;;5.28;2.35;;;7.10;99.90;;;;;;2603299;54;20026;31
2022/10/09 05:25:56;;;;;;;4.82;2.28;;;7.10;99.90;;;;;;2603057;54;20981;31
2022/10/09 05:28:33;;;;;;;7.23;2.73;;;7.40;99.90;;;;;;2621498;46;20913;31
2022/10/09 05:31:06;;;;;;;10.45;3.45;;;7.30;99.90;;;;;;2602920;54;20057;31
2022/10/09 05:33:41;;;;;;;12.10;3.50;;;7.10;99.90;;;;;;2603145;54;20034;31
2022/10/09 05:36:16;;;;;;;4.80;3.10;;;7.10;99.90;;;;;;2602412;54;20923;31
2022/10/09 05:38:53;;;;;;;7.32;3.20;;;7.20;99.90;;;;;;2603094;54;20033;31
2022/10/09 05:41:28;;;;;;;4.93;3.58;;;7.30;99.90;;;;;;2603885;54;20026;31
2022/10/09 05:44:03;;;;;;;7.15;3.63;;;7.60;99.90;;;;;;2604671;54;20048;31
2022/10/09 05:46:38;;;;;;;7.25;3.30;;;8.00;99.90;;;;;;2604557;54;20034;31
2022/10/09 05:49:13;;;;;;;9.65;4.05;;;8.30;99.90;;;;;;2623287;46;20031;31
2022/10/09 05:51:48;;;;;;;8.35;3.80;;;8.80;99.90;;;;;;2604706;54;20904;31
2022/10/09 05:54:28;;;;;;;11.52;3.10;;;9.30;99.90;;;;;;2604573;54;20903;31
2022/10/09 05:57:03;;;;;;;9.27;2.88;;;9.70;99.90;;;;;;2604826;54;20837;31
2022/10/09 05:59:40;;;;;;;8.00;3.67;;;10.10;99.90;;;;;;2604596;54;20033;31
2022/10/09 06:02:16;;;;;;;7.10;3.30;;;10.50;99.90;;;;;;2604686;54;20053;31
2022/10/09 06:04:52;;;;;;;10.10;3.17;;;10.90;99.90;;;;;;2623098;46;20033;31
2022/10/09 06:07:30;;;;;;;5.80;2.60;;;11.20;99.90;;;;;;2623552;46;20823;31
2022/10/09 06:10:08;;;;;;;7.78;3.47;;;11.50;99.90;;;;;;2604528;54;20952;31
2022/10/09 06:15:15;;;;;;;8.18;2.85;;;12.20;99.90;;;;;;2604961;54;20865;31
2022/10/09 06:17:53;;;;;;;7.15;2.90;;;12.40;99.90;;;;;;2604563;54;20160;31
2022/10/09 06:20:30;;;;;;;8.60;2.60;;;12.70;99.90;;;;;;2604803;54;20026;31
2022/10/09 06:23:06;;;;;;;8.15;3.38;;;13.00;99.90;;;;;;2604727;54;20083;31
2022/10/09 06:25:52;;;;;;;6.13;3.00;;;13.30;99.90;;;;;;2622938;46;20912;31
2022/10/09 06:28:28;;;;;;;10.77;3.13;;;13.70;99.90;;;;;;2604495;54;21347;31
2022/10/09 06:31:04;;;;;;;7.70;2.38;;;13.80;99.90;;;;;;2623208;46;20022;31
2022/10/09 06:33:40;;;;;;;8.73;2.90;;;14.10;99.90;;;;;;2604581;54;19934;31
2022/10/09 06:36:16;;;;;;;7.05;3.75;;;14.40;99.90;;;;;;2604640;54;20037;31
2022/10/09 06:38:52;;;;;;;6.50;3.00;;;14.50;99.90;;;;;;2622947;46;20022;31
2022/10/09 06:41:32;;;;;;;8.10;3.58;;;14.70;99.90;;;;;;2604544;54;20949;31
2022/10/09 06:44:17;;;;;;;8.38;3.55;;;14.90;99.90;;;;;;2604621;54;20026;31
2022/10/09 06:46:51;;;;;;;8.60;3.20;;;15.00;99.90;;;;;;2604495;54;20026;31
2022/10/09 06:49:27;;;;;;;7.10;3.00;;;15.60;99.90;;;;;;2604548;54;20133;31
2022/10/09 06:52:03;;;;;;;6.80;2.83;;;15.60;99.90;;;;;;2603470;54;20041;31
2022/10/09 06:54:38;;;;;;;;;;;15.80;99.90;;;;;;2603722;54;20274;31
2022/10/09 06:57:16;;;;;;;5.43;2.27;;;15.90;99.90;;;;;;2603613;54;19934;31
2022/10/09 06:59:51;;;;;;;5.15;2.00;;;16.00;99.90;;;;;;2603690;54;20896;31
2022/10/09 07:02:28;;;;;;;6.27;1.87;;;16.10;99.90;;;;;;2622342;46;20839;31
2022/10/09 07:05:06;;;;;;;4.38;1.88;;;16.20;99.90;;;;;;2603585;54;20030;31
2022/10/09 07:07:42;;;;;;;5.90;2.13;;;16.40;99.90;;;;;;2603801;54;20053;31
2022/10/09 07:10:17;;;;;;;;;;;16.40;99.90;;;;;;2604027;54;20031;31
2022/10/09 07:13:01;;;;;;;7.55;2.15;;;16.50;99.90;;;;;;2621780;46;20795;31
2022/10/09 07:15:36;;;;;;;6.00;2.13;;;16.70;99.90;;;;;;2603488;54;20030;31
2022/10/09 07:18:10;;;;;;;4.78;1.63;;;16.80;99.90;;;;;;2603572;54;20065;31
2022/10/09 07:20:46;;;;;;;4.60;1.98;;;16.70;99.90;;;;;;2603611;54;20919;31
2022/10/09 07:23:21;;;;;;;8.70;2.00;;;16.90;99.90;;;;;;2603480;54;20808;31
2022/10/09 07:25:55;;;;;;;8.85;1.90;;;16.90;99.90;;;;;;2622094;46;20030;31
2022/10/09 07:28:35;;;;;;;6.57;1.50;;;17.10;99.90;;;;;;2603316;54;20798;31
2022/10/09 07:31:11;;;;;;;5.13;2.00;;;17.20;99.90;;;;;;2603615;54;20101;31
2022/10/09 07:33:49;;;;;;;;;;;17.30;99.90;;;;;;2603632;54;20027;31
2022/10/09 07:36:23;;;;;;;5.70;1.50;;;17.40;99.90;;;;;;2603673;54;19935;31
2022/10/09 07:38:59;;;;;;;9.77;2.00;;;17.60;99.90;;;;;;2603699;54;20026;31
2022/10/09 07:41:40;;;;;;;9.10;1.90;;;17.80;99.90;;;;;;2603451;54;20812;31
2022/10/09 07:44:19;;;;;;;8.60;1.50;;;17.90;99.90;;;;;;2603618;54;20944;31
2022/10/09 07:46:56;;;;;;;5.27;1.70;;;17.80;99.90;;;;;;2603197;54;20034;31
2022/10/09 07:49:31;;;;;;;4.53;1.50;;;17.90;99.90;;;;;;2603567;54;20026;31
2022/10/09 07:52:05;;;;;;;7.00;1.40;;;18.10;99.90;;;;;;2603447;54;20026;31
2022/10/09 07:54:41;;;;;;;5.07;1.85;;;18.00;99.90;;;;;;2603249;54;20081;31
2022/10/09 07:57:16;;;;;;;10.00;1.85;;;18.10;99.90;;;;;;2603367;54;20023;31
2022/10/09 07:59:48;;;;;;;6.97;1.75;;;18.20;99.90;;;;;;2603416;54;20084;31
2022/10/09 08:02:27;;;;;;;4.82;1.38;;;18.40;99.90;;;;;;2603381;54;20120;31
2022/10/09 08:05:02;;;;;;;8.85;2.03;;;18.60;99.90;;;;;;2603264;54;20891;31
2022/10/09 08:07:37;;;;;;;10.00;2.15;;;18.80;99.90;;;;;;2603047;54;20038;31
2022/10/09 08:10:12;;;;;;;6.90;1.60;;;18.80;99.90;;;;;;2603332;54;20033;31
2022/10/09 08:12:49;;;;;;;8.93;1.73;;;18.80;99.90;;;;;;2622275;46;20038;31
2022/10/09 08:15:25;;;;;;;8.35;2.10;;;19.00;99.90;;;;;;2603444;54;20910;31
2022/10/09 08:18:04;;;;;;;8.73;1.85;;;19.10;99.90;;;;;;2603563;54;20818;31
2022/10/09 08:20:39;;;;;;;10.48;1.77;;;19.20;99.90;;;;;;2603295;54;20042;31
2022/10/09 08:23:15;;;;;;;8.38;2.00;;;19.20;99.90;;;;;;2603270;54;20081;31
2022/10/09 08:25:54;;;;;;;5.30;1.40;;;19.30;99.90;;;;;;2603195;54;20030;31
2022/10/09 08:28:28;;;;;;;7.60;1.60;;;19.40;99.90;;;;;;2603165;54;20028;31
2022/10/09 08:31:11;;;;;;;5.85;1.45;;;19.60;99.90;;;;;;2603390;54;20029;31
2022/10/09 08:33:50;;;;;;;6.85;1.40;;;19.60;99.90;;;;;;2603133;54;20879;31
2022/10/09 08:36:28;;;;;;;6.32;2.10;;;19.60;99.90;;;;;;2603194;54;20036;31
2022/10/09 08:39:02;;;;;;;5.65;1.50;;;19.50;99.90;;;;;;2603343;54;20026;31
2022/10/09 08:41:45;;;;;;;5.53;1.53;;;19.60;99.90;;;;;;2603344;54;20064;31
2022/10/09 08:44:21;;;;;;;6.20;1.20;;;19.60;99.90;;;;;;2603689;54;20034;31
2022/10/09 08:47:00;;;;;;;7.90;1.50;;;19.80;99.90;;;;;;2608688;46;20877;31
2022/10/09 08:49:43;;;;;;;7.55;1.40;;;20.00;99.90;;;;;;2603428;54;20038;31
2022/10/09 08:52:23;;;;;;;5.30;0.95;;;20.00;99.90;;;;;;2603352;54;20104;31
2022/10/09 08:54:59;;;;;;;5.95;1.45;;;20.10;99.90;;;;;;2603612;54;20023;31
2022/10/09 08:57:34;;;;;;;4.33;1.60;;;20.00;99.90;;;;;;2603417;54;20048;31
2022/10/09 09:00:15;;;;;;;5.57;1.30;;;20.10;99.90;;;;;;2603303;54;19946;31
2022/10/09 09:02:58;;;;;;;7.60;1.40;;;20.20;99.90;;;;;;2603185;54;20033;31
2022/10/09 09:05:42;;;;;;;5.43;1.40;;;20.10;99.90;;;;;;2622104;46;20855;31
2022/10/09 09:08:21;;;;;;;6.20;1.60;;;20.30;99.90;;;;;;2603455;54;20027;31
2022/10/09 09:10:59;;;;;;;6.78;1.52;;;20.20;99.90;;;;;;2603394;54;20050;31
2022/10/09 09:13:43;;;;;;;7.57;2.10;;;20.40;99.90;;;;;;2603235;54;20022;31
2022/10/09 09:16:20;;;;;;;7.57;1.83;;;20.30;99.90;;;;;;2621424;46;20027;31
2022/10/09 09:18:57;;;;;;;5.63;1.38;;;20.40;99.90;;;;;;2603140;54;20027;31
2022/10/09 09:21:40;;;;;;;6.82;1.33;;;20.30;99.90;;;;;;2603272;54;20832;31
2022/10/09 09:24:16;;;;;;;6.75;1.30;;;20.30;99.90;;;;;;2603117;54;20027;31
2022/10/09 09:26:53;;;;;;;6.30;1.25;;;20.30;99.90;;;;;;2603097;54;20046;31
2022/10/09 09:29:29;;;;;;;7.55;1.92;;;20.40;99.90;;;;;;2603012;54;20049;31
2022/10/09 09:32:06;;;;;;;9.90;4.87;;;20.40;99.90;;;;;;2603218;54;20023;31
2022/10/09 09:34:42;;;;;;;6.35;1.25;;;20.50;99.90;;;;;;2602984;54;20085;31
2022/10/09 09:37:21;;;;;;;6.18;1.23;;;20.40;99.90;;;;;;2603197;54;20042;31
2022/10/09 09:39:55;;;;;;;6.20;1.15;;;20.40;99.90;;;;;;2603289;54;20907;31
2022/10/09 09:42:50;;;;;;;6.20;1.00;;;20.40;99.90;;;;;;2602678;54;20061;31
2022/10/09 09:45:27;;;;;;;6.67;1.17;;;20.10;99.90;;;;;;2602986;54;19935;31
2022/10/09 09:48:03;;;;;;;4.20;1.10;;;20.00;99.90;;;;;;2621865;47;20897;31
2022/10/09 09:50:42;;;;;;;7.00;1.70;;;19.80;99.90;;;;;;2621990;47;20890;31
2022/10/09 09:53:35;;;;;;;8.65;1.48;;;19.70;99.90;;;;;;2621204;47;20052;31
2022/10/09 09:56:10;;;;;;;7.43;1.10;;;19.80;99.90;;;;;;2603009;54;20026;31
2022/10/09 09:58:47;;;;;;;4.90;0.73;;;20.00;99.90;;;;;;2603071;54;20022;31
2022/10/09 10:01:25;;;;;;;3.83;0.70;;;19.80;99.90;;;;;;2608330;47;20069;31
2022/10/09 10:04:00;;;;;;;6.45;1.00;;;19.70;99.90;;;;;;2603178;54;21204;31
2022/10/09 10:06:37;;;;;;;3.60;0.95;;;19.90;99.90;;;;;;2603282;54;20031;31
2022/10/09 10:09:19;;;;;;;3.35;0.80;;;20.00;99.90;;;;;;2603306;54;20026;31
2022/10/09 10:11:56;;;;;;;8.30;1.20;;;19.90;99.90;;;;;;2603247;54;20027;31
2022/10/09 10:14:30;;;;;;;9.30;1.35;;;19.70;99.90;;;;;;2602922;54;20897;31
2022/10/09 10:17:05;;;;;;;3.05;1.30;;;19.70;99.90;;;;;;2621247;47;20112;31
2022/10/09 10:19:40;;;;;;;6.55;0.85;;;19.80;99.90;;;;;;2602975;54;20027;31
2022/10/09 10:22:24;;;;;;;3.80;0.50;;;19.50;99.90;;;;;;2602776;54;20104;31
2022/10/09 10:25:01;;;;;;;5.70;1.13;;;19.10;99.90;;;;;;2602897;54;20085;31
2022/10/09 10:27:37;;;;;;;6.40;1.50;;;19.00;99.90;;;;;;2603157;54;20027;31
2022/10/09 10:30:14;;;;;;;5.97;1.42;;;19.10;99.90;;;;;;2624140;46;20514;31
2022/10/09 10:32:53;;;;;;;9.48;1.17;;;19.20;99.90;;;;;;2604061;54;20027;31
2022/10/09 10:35:26;;;;;;;4.03;1.38;;;19.50;99.90;;;;;;2603977;54;20856;31
2022/10/09 10:38:05;;;;;;;7.43;1.20;;;19.70;99.90;;;;;;2603791;54;20025;31
2022/10/09 10:40:45;;;;;;;4.30;0.95;;;19.70;99.90;;;;;;2603832;54;21056;31
2022/10/09 10:43:29;;;;;;;7.90;1.05;;;19.80;99.90;;;;;;2603785;54;20870;31
2022/10/09 10:46:07;;;;;;;3.47;0.73;;;19.60;99.90;;;;;;2603749;54;20872;31
2022/10/09 10:48:45;;;;;;;8.82;1.17;;;19.50;99.90;;;;;;2603615;54;21275;31
2022/10/09 10:51:18;;;;;;;10.45;1.85;;;19.50;99.90;;;;;;2622547;46;20038;31
2022/10/09 10:54:02;;;;;;;6.60;0.90;;;19.40;99.90;;;;;;2603878;54;20922;31
2022/10/09 10:56:40;;;;;;;5.60;1.63;;;19.40;99.90;;;;;;2603570;54;20033;31
2022/10/09 10:59:26;;;;;;;5.57;1.10;;;19.30;99.90;;;;;;2603811;54;20032;31
2022/10/09 11:02:21;;;;;;;7.68;0.70;;;19.40;99.90;;;;;;2622150;46;20027;31
2022/10/09 11:05:00;;;;;;;4.50;0.80;;;19.30;99.90;;;;;;2603419;54;20023;31
2022/10/09 11:07:37;;;;;;;5.25;1.00;;;19.30;99.90;;;;;;2603441;54;20037;31
2022/10/09 11:10:15;;;;;;;6.90;0.80;;;19.20;99.90;;;;;;2609442;46;20022;31
2022/10/09 11:12:56;;;;;;;4.40;0.82;;;19.20;99.90;;;;;;2603637;54;20891;31
2022/10/09 11:15:36;;;;;;;4.28;0.82;;;19.10;99.90;;;;;;2603601;54;20081;31
2022/10/09 11:18:25;;;;;;;2.85;0.70;;;19.00;99.90;;;;;;2603446;54;20908;31
2022/10/09 11:21:17;;;;;;;4.85;0.90;;;18.90;99.90;;;;;;2603440;54;20109;31
2022/10/09 11:23:59;;;;;;;5.43;0.73;;;18.70;99.90;;;;;;2603789;54;20113;31
2022/10/09 11:26:38;;;;;;;6.00;0.80;;;18.30;99.90;;;;;;2603487;54;20022;31
2022/10/09 11:29:18;;;;;;;6.00;0.60;;;18.20;99.90;;;;;;2603699;54;20018;31
2022/10/09 11:31:51;;;;;;;4.03;1.27;;;18.00;99.90;;;;;;2603555;54;20022;31
2022/10/09 11:34:29;;;;;;;6.05;0.70;;;18.00;99.90;;;;;;2603410;54;20926;31
2022/10/09 11:37:04;;;;;;;5.65;0.93;;;18.00;99.90;;;;;;2621971;46;20022;31
2022/10/09 11:39:37;;;;;;;3.42;0.80;;;18.10;99.90;;;;;;2603249;54;20865;31
2022/10/09 11:42:12;;;;;;;7.60;0.70;;;18.10;99.90;;;;;;2603696;54;20888;31
2022/10/09 11:44:53;;;;;;;2.90;0.75;;;18.30;99.90;;;;;;2603756;54;20037;31
2022/10/09 11:47:32;;;;;;;3.40;0.60;;;18.20;99.90;;;;;;2603623;54;20888;31
2022/10/09 11:50:16;;;;;;;4.80;0.73;;;18.30;99.90;;;;;;2603678;54;20026;31
2022/10/09 11:52:52;;;;;;;5.95;0.77;;;18.30;99.90;;;;;;2603448;54;20530;31
2022/10/09 11:55:27;;;;;;;5.33;0.63;;;18.40;99.90;;;;;;2622059;46;21037;31
2022/10/09 11:58:17;;;;;;;4.35;0.52;;;18.40;99.90;;;;;;2603466;54;20026;31
2022/10/09 12:00:55;;;;;;;4.07;0.70;;;18.50;99.90;;;;;;2603403;54;20803;31
2022/10/09 12:03:32;;;;;;;6.47;0.95;;;18.50;99.90;;;;;;2603404;54;21195;31
2022/10/09 12:06:09;;;;;;;3.90;0.65;;;18.40;99.90;;;;;;2603283;54;20106;31
2022/10/09 12:08:45;;;;;;;3.85;1.10;;;18.50;99.90;;;;;;2603258;54;20165;31
2022/10/09 12:11:20;;;;;;;3.58;0.65;;;18.40;99.90;;;;;;2603294;54;20897;31
2022/10/09 12:13:56;;;;;;;4.80;1.05;;;18.40;99.90;;;;;;2603523;54;20022;31
2022/10/09 12:16:52;;;;;;;7.45;1.00;;;18.20;99.90;;;;;;2603428;54;20092;31
2022/10/09 12:19:27;;;;;;;5.27;0.90;;;18.10;99.90;;;;;;2603011;54;20713;31
2022/10/09 12:22:05;;;;;;;6.65;0.80;;;18.00;99.90;;;;;;2603371;54;21132;31
2022/10/09 12:24:40;;;;;;;4.87;0.70;;;17.90;99.90;;;;;;2621582;46;20037;31
2022/10/09 12:27:17;;;;;;;3.47;0.82;;;17.80;99.90;;;;;;2603110;54;20514;31
2022/10/09 12:29:54;;;;;;;5.13;0.70;;;17.60;99.90;;;;;;2603667;54;20026;31
2022/10/09 12:32:32;;;;;;;3.88;0.90;;;17.50;99.90;;;;;;2603185;54;20038;31
2022/10/09 12:35:13;;;;;;;2.38;0.50;;;17.40;99.90;;;;;;2608935;46;20033;31
2022/10/09 12:37:48;;;;;;;6.20;0.90;;;17.20;99.90;;;;;;2603404;54;20939;31
2022/10/09 12:40:24;;;;;;;5.63;0.77;;;17.10;99.90;;;;;;2603144;54;20054;31
2022/10/09 12:42:59;;;;;;;2.80;0.63;;;17.10;99.90;;;;;;2603536;54;20030;31
2022/10/09 12:45:33;;;;;;;4.45;0.50;;;16.90;99.90;;;;;;2603409;54;20033;31
2022/10/09 12:48:16;;;;;;;4.90;0.85;;;16.90;99.90;;;;;;2603252;54;20026;31
2022/10/09 12:50:51;;;;;;;6.15;0.90;;;16.80;99.90;;;;;;2602823;54;25130;31
2022/10/09 12:53:26;;;;;;;4.37;1.10;;;16.80;99.90;;;;;;2603320;54;20026;31
2022/10/09 12:56:02;;;;;;;;;;;16.70;99.90;;;;;;2603359;54;20161;31
2022/10/09 12:58:38;;;;;;;4.93;0.80;;;16.50;99.90;;;;;;2603297;54;19989;31
2022/10/09 13:01:13;;;;;;;3.03;0.43;;;16.40;99.90;;;;;;2609567;39;22197;31
2022/10/09 13:03:57;;;;;;;4.78;0.95;;;16.40;99.90;;;;;;2603033;54;20801;31
2022/10/09 13:06:36;;;;;;;3.38;0.50;;;16.30;99.90;;;;;;2603125;54;20909;31
2022/10/09 13:09:10;;;;;;;3.97;0.70;;;16.20;99.90;;;;;;2603453;54;20879;31
2022/10/09 13:11:46;;;;;;;2.83;0.50;;;16.40;99.90;;;;;;2603157;54;20018;31
2022/10/09 13:14:26;;;;;;;3.17;0.50;;;16.40;99.90;;;;;;2603165;54;20033;31
2022/10/09 13:17:00;;;;;;;4.32;0.68;;;16.40;99.90;;;;;;2603163;54;20816;31
2022/10/09 13:19:38;;;;;;;2.03;0.47;;;16.40;99.90;;;;;;2612721;46;20882;31
2022/10/09 13:22:21;;;;;;;6.00;0.70;;;16.40;99.90;;;;;;2603036;54;20038;31
2022/10/09 13:24:56;;;;;;;7.10;0.80;;;16.40;99.90;;;;;;2603161;54;20104;31
2022/10/09 13:27:31;;;;;;;3.47;0.57;;;16.30;99.90;;;;;;2603231;54;20854;31
2022/10/09 13:30:06;;;;;;;3.10;0.60;;;16.40;99.90;;;;;;2608180;46;20864;31
2022/10/09 13:32:41;;;;;;;1.53;0.33;;;16.40;99.90;;;;;;2603222;54;20085;31
2022/10/09 13:35:18;;;;;;;3.72;0.57;;;16.40;99.90;;;;;;2602953;54;21181;31
2022/10/09 13:37:52;;;;;;;3.20;0.70;;;16.40;99.90;;;;;;2603227;54;20047;31
2022/10/09 13:40:26;;;;;;;2.40;0.40;;;16.40;99.90;;;;;;2603231;54;20110;31
2022/10/09 13:43:04;;;;;;;2.95;0.40;;;16.30;99.90;;;;;;2603100;54;20101;31
2022/10/09 13:45:38;;;;;;;5.50;0.70;;;16.40;99.90;;;;;;2603287;54;20592;31
2022/10/09 13:48:12;;;;;;;4.55;0.82;;;16.30;99.90;;;;;;2603222;54;20047;31
2022/10/09 13:50:49;;;;;;;3.57;0.53;;;16.30;99.90;;;;;;2603224;54;20833;31
2022/10/09 13:53:24;;;;;;;1.20;0.20;;;16.30;99.90;;;;;;2602854;54;20026;31